Map

Track Data

SID SEASON NUMBER BASIN SUBBASIN NAME ISO_TIME NATURE LAT LON WMO_WIND WMO_PRES WMO_AGENCY TRACK_TYPE DIST2LAND LANDFALL IFLAG USA_AGENCY USA_ATCF_ID USA_LAT USA_LON USA_RECORD USA_STATUS USA_WIND USA_PRES USA_SSHS USA_R34_NE USA_R34_SE USA_R34_SW USA_R34_NW USA_R50_NE USA_R50_SE USA_R50_SW USA_R50_NW USA_R64_NE USA_R64_SE USA_R64_SW USA_R64_NW USA_POCI USA_ROCI USA_RMW USA_EYE TOKYO_LAT TOKYO_LON TOKYO_GRADE TOKYO_WIND TOKYO_PRES TOKYO_R50_DIR TOKYO_R50_LONG TOKYO_R50_SHORT TOKYO_R30_DIR TOKYO_R30_LONG TOKYO_R30_SHORT TOKYO_LAND CMA_LAT CMA_LON CMA_CAT CMA_WIND CMA_PRES HKO_LAT HKO_LON HKO_CAT HKO_WIND HKO_PRES NEWDELHI_LAT NEWDELHI_LON NEWDELHI_GRADE NEWDELHI_WIND NEWDELHI_PRES NEWDELHI_CI NEWDELHI_DP NEWDELHI_POCI REUNION_LAT REUNION_LON REUNION_TYPE REUNION_WIND REUNION_PRES REUNION_TNUM REUNION_CI REUNION_RMW REUNION_R34_NE REUNION_R34_SE REUNION_R34_SW REUNION_R34_NW REUNION_R50_NE REUNION_R50_SE REUNION_R50_SW REUNION_R50_NW REUNION_R64_NE REUNION_R64_SE REUNION_R64_SW REUNION_R64_NW BOM_LAT BOM_LON BOM_TYPE BOM_WIND BOM_PRES BOM_TNUM BOM_CI BOM_RMW BOM_R34_NE BOM_R34_SE BOM_R34_SW BOM_R34_NW BOM_R50_NE BOM_R50_SE BOM_R50_SW BOM_R50_NW BOM_R64_NE BOM_R64_SE BOM_R64_SW BOM_R64_NW BOM_ROCI BOM_POCI BOM_EYE BOM_POS_METHOD BOM_PRES_METHOD NADI_LAT NADI_LON NADI_CAT NADI_WIND NADI_PRES WELLINGTON_LAT WELLINGTON_LON WELLINGTON_WIND WELLINGTON_PRES DS824_LAT DS824_LON DS824_STAGE DS824_WIND DS824_PRES TD9636_LAT TD9636_LON TD9636_STAGE TD9636_WIND TD9636_PRES TD9635_LAT TD9635_LON TD9635_WIND TD9635_PRES TD9635_ROCI NEUMANN_LAT NEUMANN_LON NEUMANN_CLASS NEUMANN_WIND NEUMANN_PRES MLC_LAT MLC_LON MLC_CLASS MLC_WIND MLC_PRES USA_GUST BOM_GUST BOM_GUST_PER REUNION_GUST REUNION_GUST_PER USA_SEAHGT USA_SEARAD_NE USA_SEARAD_SE USA_SEARAD_SW USA_SEARAD_NW STORM_SPEED STORM_DIR
1941026S20040 1941 7 SI MM NOT_NAMED 1941-01-26 06:00:00 NR -19.5000 39.9000 reunion main 292 286 _____O________ -1 -19.5000 39.9000 99 9.90000 3 286
1941026S20040 1941 7 SI MM NOT_NAMED 1941-01-26 09:00:00 NR -19.4508 39.7232 main 286 273 _____P________ -1 -19.4508 39.7232 99 3 286
1941026S20040 1941 7 SI MM NOT_NAMED 1941-01-26 12:00:00 NR -19.4108 39.5681 main 273 270 _____P________ -1 -19.4108 39.5681 99 3 284
1941026S20040 1941 7 SI MM NOT_NAMED 1941-01-26 15:00:00 NR -19.3898 39.4562 main 270 267 _____P________ -1 -19.3898 39.4562 99 2 275
1941026S20040 1941 7 SI MM NOT_NAMED 1941-01-26 18:00:00 NR -19.3972 39.4089 main 267 267 _____P________ -1 -19.3972 39.4089 99 1 199
1941026S20040 1941 7 SI MM NOT_NAMED 1941-01-26 21:00:00 NR -19.4426 39.4478 main 267 267 _____P________ -1 -19.4426 39.4478 99 2 128
1941026S20040 1941 7 SI MM NOT_NAMED 1941-01-27 00:00:00 NR -19.5354 39.5945 main 284 284 _____P________ -1 -19.5354 39.5945 99 5 121
1941026S20040 1941 7 SI MM NOT_NAMED 1941-01-27 03:00:00 NR -19.6849 39.8711 main 313 313 _____P________ -1 -19.6849 39.8711 99 10 121
1941026S20040 1941 7 SI MM NOT_NAMED 1941-01-27 06:00:00 TS -20.0667 40.5333 reunion main 344 245 _____O___OO___ -1 -19.9000 40.3000 99 9.90000 -20.4000 41.0000 TC 35 -20.4000 41.0000 2 16 118
1941026S20040 1941 7 SI MM NOT_NAMED 1941-01-27 09:00:00 TS -20.4438 41.4044 main 245 141 _____P___PP___ -1 -20.1848 40.8959 99 -20.7008 41.8994 TC 35 -20.7047 41.9265 2 19 114
1941026S20040 1941 7 SI MM NOT_NAMED 1941-01-27 12:00:00 TS -20.8120 42.3460 main 141 38 _____P___OP___ -1 -20.5260 41.6396 99 -21.0000 42.8000 TC 35 -21.0054 42.8340 2 19 112
1941026S20040 1941 7 SI MM NOT_NAMED 1941-01-27 15:00:00 TS -21.1697 43.2968 main 30 0 _____P___PP___ -1 -20.9061 42.5032 99 -21.2999 43.6877 TC 35 -21.3033 43.6996 2 18 112
1941026S20040 1941 7 SI MM NOT_NAMED 1941-01-27 18:00:00 TS -21.5026 44.1527 main 0 0 _____P___OO___ -1 -21.3077 43.4582 99 -21.6000 44.5000 TC 35 -21.6000 44.5000 2 17 113
1941026S20040 1941 7 SI MM NOT_NAMED 1941-01-27 21:00:00 TS -21.8369 44.9568 main 0 0 _____P___PP___ -1 -21.7139 44.4755 99 -21.8993 45.1730 TC 35 -21.8975 45.2218 2 16 114
1941026S20040 1941 7 SI MM NOT_NAMED 1941-01-28 00:00:00 TS -22.1683 45.7383 main 0 0 _____P___OP___ -1 -22.1082 45.5253 99 -22.2000 45.8000 TC 35 -22.1967 45.8895 2 16 114
1941026S20040 1941 7 SI MM NOT_NAMED 1941-01-28 03:00:00 TS -22.4908 46.5333 main 0 0 _____P___PP___ -1 -22.4751 46.5771 99 -22.4997 46.4853 TC 35 -22.4977 46.5375 2 16 113
1941026S20040 1941 7 SI MM NOT_NAMED 1941-01-28 06:00:00 TS -22.8000 47.3333 reunion main 0 0 _____O___OO___ -1 -22.8000 47.6000 99 9.90000 -22.8000 47.2000 TC 35 -22.8000 47.2000 2 16 112
1941026S20040 1941 7 SI MM NOT_NAMED 1941-01-28 09:00:00 TS -23.0779 48.1270 main 37 37 _____P___PP___ -1 -23.0255 48.4854 99 -23.0997 47.9428 TC 35 -23.1083 47.9528 2 16 110
1941026S20040 1941 7 SI MM NOT_NAMED 1941-01-28 12:00:00 TS -23.3439 48.9270 main 121 121 _____P___OP___ -1 -23.2164 49.3586 99 -23.4000 48.7000 TC 35 -23.4154 48.7224 2 16 110
1941026S20040 1941 7 SI MM NOT_NAMED 1941-01-28 15:00:00 TS -23.6005 49.7241 main 205 205 _____P___PP___ -1 -23.3793 50.2188 99 -23.7074 49.4726 TC 35 -23.7146 49.4809 2 15 109
1941026S20040 1941 7 SI MM NOT_NAMED 1941-01-28 18:00:00 TS -23.8402 50.4884 main 288 288 _____P___OO___ -1 -23.5206 51.0652 99 -24.0000 50.2000 TC 35 -24.0000 50.2000 2 14 108
1941026S20040 1941 7 SI MM NOT_NAMED 1941-01-28 21:00:00 TS -24.0354 51.1560 main 362 362 _____P___PP___ -1 -23.6468 51.8970 99 -24.2570 50.8230 TC 35 -24.2024 50.7481 2 13 108
1941026S20040 1941 7 SI MM NOT_NAMED 1941-01-29 00:00:00 TS -24.2222 51.7939 main 426 426 _____P___OP___ -1 -23.7644 52.7137 99 -24.5000 51.4000 TC 35 -24.4021 51.2679 2 12 108
1941026S20040 1941 7 SI MM NOT_NAMED 1941-01-29 03:00:00 TS -24.4089 52.4243 main 456 432 _____P___PP___ -1 -23.8800 53.5148 99 -24.6957 51.9048 TC 35 -24.6511 51.8532 2 13 110
1941026S20040 1941 7 SI MM NOT_NAMED 1941-01-29 06:00:00 TS -24.6667 53.1667 reunion main 436 426 _____O___OO___ -1 -24.0000 54.3000 99 9.90000 -25.0000 52.6000 TC 35 -25.0000 52.6000 2 17 112
1941026S20040 1941 7 SI MM NOT_NAMED 1941-01-29 09:00:00 TS -25.0692 54.1914 main 437 431 _____P___PP___ -1 -24.1679 55.1603 99 -25.5487 53.7589 TC 35 -25.4910 53.6551 2 21 114
1941026S20040 1941 7 SI MM NOT_NAMED 1941-01-29 12:00:00 TS -25.5389 55.3324 main 459 459 _____P___OP___ -1 -24.3388 56.0146 99 -26.2000 55.1000 TC 35 -26.0778 54.8825 2 22 115
1941026S20040 1941 7 SI MM NOT_NAMED 1941-01-29 15:00:00 TS -26.0082 56.4532 main 522 522 _____P___PP___ -1 -24.5083 56.8488 99 -26.7915 56.3165 TC 35 -26.7250 56.1943 2 22 116
1941026S20040 1941 7 SI MM NOT_NAMED 1941-01-29 18:00:00 TS -26.4908 57.5494 main 601 601 _____P___OO___ -1 -24.6723 57.6483 99 -27.4000 57.5000 TC 35 -27.4000 57.5000 2 22 117
1941026S20040 1941 7 SI MM NOT_NAMED 1941-01-29 21:00:00 TS -26.9798 58.5948 main 695 695 _____P___PP___ -1 -24.8269 58.3983 99 -28.0339 58.6590 TC 35 -28.0786 58.7272 2 19 112
1941026S20040 1941 7 SI MM NOT_NAMED 1941-01-30 00:00:00 TS -27.2243 59.5387 main 758 758 _____P___OP___ -1 -24.9687 59.0837 99 -28.7000 59.8000 TC 35 -28.7560 59.8841 2 16 100
1941026S20040 1941 7 SI MM NOT_NAMED 1941-01-30 03:00:00 TS -27.2534 60.3304 main 804 781 _____P___PP___ -1 -25.0941 59.6893 99 -29.3946 60.9441 TC 35 -29.4308 60.9990 2 12 71
1941026S20040 1941 7 SI MM NOT_NAMED 1941-01-30 06:00:00 TS -26.8333 60.8333 reunion main 771 613 _____O___OO___ -1 -25.2000 60.2000 99 9.90000 -30.1000 62.1000 TC 35 -30.1000 62.1000 2 20 7
1941026S20040 1941 7 SI MM NOT_NAMED 1941-01-30 09:00:00 NR -25.2843 60.6051 main 613 603 _____P________ -1 -25.2843 60.6051 99 TC 2 15 3
1941026S20040 1941 7 SI MM NOT_NAMED 1941-01-30 12:00:00 NR -25.3493 60.9134 main 628 628 _____P________ -1 -25.3493 60.9134 99 2 5 103
1941026S20040 1941 7 SI MM NOT_NAMED 1941-01-30 15:00:00 NR -25.3982 61.1385 main 648 648 _____P________ -1 -25.3982 61.1385 99 2 4 104
1941026S20040 1941 7 SI MM NOT_NAMED 1941-01-30 18:00:00 NR -25.4340 61.2942 main 660 660 _____P________ -1 -25.4340 61.2942 99 2 105
1941026S20040 1941 7 SI MM NOT_NAMED 1941-01-30 21:00:00 NR -25.4595 61.3943 main 674 674 _____P________ -1 -25.4595 61.3943 99 1 107
1941026S20040 1941 7 SI MM NOT_NAMED 1941-01-31 00:00:00 NR -25.4772 61.4527 main 680 680 _____P________ -1 -25.4772 61.4527 99 1 110
1941026S20040 1941 7 SI MM NOT_NAMED 1941-01-31 03:00:00 NR -25.4899 61.4833 main 680 680 _____P________ -1 -25.4899 61.4833 99 0 125
1941026S20040 1941 7 SI MM NOT_NAMED 1941-01-31 06:00:00 NR -25.5000 61.5000 reunion main 680 _____O________ -1 -25.5000 61.5000 99 9.90000 0 0

About IBTrACS Database

This database is a web-friendly format of International Best Track Archive for Climate Stewardship (IBTrACS), a global best track data archive curated by NOAA dating back to 1842.

Updated: 2021-10-21